createdAt,value
2022-08-21T00:04:39.858Z,39.62
2022-08-21T00:10:00.424Z,39.58
2022-08-21T00:15:04.597Z,39.95
2022-08-21T00:20:13.358Z,40.14
2022-08-21T00:25:16.868Z,40.20
2022-08-21T00:30:24.685Z,40.55
2022-08-21T00:35:31.937Z,40.47
2022-08-21T00:40:45.245Z,40.48
2022-08-21T00:45:47.878Z,40.72
2022-08-21T00:50:59.227Z,40.43
2022-08-21T00:56:04.382Z,40.49
2022-08-21T01:01:09.696Z,40.55
2022-08-21T01:06:12.715Z,40.89
2022-08-21T01:11:16.880Z,41.28
2022-08-21T01:16:22.566Z,41.35
2022-08-21T01:21:28.742Z,41.89
2022-08-21T01:26:35.719Z,42.37
2022-08-21T01:31:38.894Z,42.78
2022-08-21T01:36:41.595Z,42.65
2022-08-21T01:41:44.673Z,42.92
2022-08-21T01:46:47.360Z,42.87
2022-08-21T01:51:50.069Z,42.79
2022-08-21T01:56:54.625Z,43.09
2022-08-21T02:01:57.737Z,43.38
2022-08-21T02:07:01.468Z,43.82
2022-08-21T02:12:04.963Z,44.07
2022-08-21T02:17:09.241Z,44.19
2022-08-21T02:22:12.772Z,43.97
2022-08-21T02:27:15.407Z,43.83
2022-08-21T02:32:18.195Z,43.18
2022-08-21T02:37:20.883Z,42.39
2022-08-21T02:42:23.668Z,41.82
2022-08-21T02:47:26.338Z,40.51
2022-08-21T02:52:28.997Z,40.58
2022-08-21T02:57:33.637Z,40.58
2022-08-21T03:02:36.716Z,40.30
2022-08-21T03:07:40.480Z,39.80
2022-08-21T03:12:44.469Z,39.71
2022-08-21T03:17:48.695Z,39.33
2022-08-21T03:22:53.217Z,38.60
2022-08-21T03:27:58.813Z,37.91
2022-08-21T03:33:02.520Z,37.39
2022-08-21T03:38:05.754Z,37.56
2022-08-21T03:43:10.678Z,37.67
2022-08-21T03:48:13.717Z,37.61
2022-08-21T03:53:17.973Z,37.29
2022-08-21T03:58:24.461Z,37.35
2022-08-21T04:03:28.434Z,37.13
2022-08-21T04:08:31.373Z,37.03
2022-08-21T04:13:35.122Z,36.91
2022-08-21T04:18:46.984Z,36.90
2022-08-21T04:23:49.687Z,36.63
2022-08-21T04:28:53.101Z,36.49
2022-08-21T04:33:56.119Z,36.32
2022-08-21T04:38:59.001Z,35.92
2022-08-21T04:44:02.562Z,35.73
2022-08-21T04:49:05.171Z,35.41
2022-08-21T04:54:15.736Z,34.37
2022-08-21T04:59:37.346Z,33.85
2022-08-21T05:04:49.833Z,33.73
2022-08-21T05:09:53.363Z,33.53
2022-08-21T05:14:56.473Z,33.39
2022-08-21T05:19:59.136Z,33.33
2022-08-21T05:25:01.892Z,33.13
2022-08-21T05:30:08.750Z,33.45
2022-08-21T05:35:12.372Z,33.25
2022-08-21T05:40:21.465Z,33.38
2022-08-21T05:45:43.009Z,32.72
2022-08-21T05:50:48.593Z,32.47
2022-08-21T05:55:53.161Z,31.55
2022-08-21T06:00:56.031Z,31.27
2022-08-21T06:05:59.089Z,30.90
2022-08-21T06:11:02.755Z,30.26
2022-08-21T06:16:15.623Z,30.20
2022-08-21T06:21:19.286Z,29.67
2022-08-21T06:26:22.617Z,29.86
2022-08-21T06:31:27.610Z,29.54
2022-08-21T06:36:30.385Z,29.22
2022-08-21T06:41:39.102Z,28.99
2022-08-21T06:46:41.928Z,28.90
2022-08-21T06:51:47.376Z,28.10
2022-08-21T06:56:50.160Z,27.97
2022-08-21T07:01:52.876Z,27.87
2022-08-21T07:06:55.891Z,27.51
2022-08-21T07:11:58.954Z,27.78
2022-08-21T07:17:02.369Z,27.10
2022-08-21T07:22:05.492Z,26.76
2022-08-21T07:27:10.049Z,26.98
2022-08-21T07:32:13.355Z,26.50
2022-08-21T07:37:16.129Z,26.10
2022-08-21T07:42:20.040Z,25.67
2022-08-21T07:47:29.509Z,26.29
2022-08-21T07:52:46.058Z,25.67
2022-08-21T07:57:49.525Z,25.78
2022-08-21T08:02:54.218Z,24.99
2022-08-21T08:07:57.584Z,24.21
2022-08-21T08:13:01.485Z,25.27
2022-08-21T08:18:04.713Z,24.97
2022-08-21T08:23:07.448Z,24.81
2022-08-21T08:28:17.192Z,25.09
2022-08-21T08:33:21.419Z,25.11
2022-08-21T08:38:26.263Z,24.65
2022-08-21T08:43:34.591Z,24.23
2022-08-21T08:48:49.372Z,24.23
2022-08-21T08:54:01.131Z,24.02
2022-08-21T08:59:18.368Z,24.53
2022-08-21T09:04:26.232Z,24.27
2022-08-21T09:09:40.320Z,24.63
2022-08-21T09:15:04.482Z,24.39
2022-08-21T09:20:17.608Z,24.37
2022-08-21T09:25:27.579Z,23.40
2022-08-21T09:30:33.630Z,23.12
2022-08-21T09:35:38.345Z,22.45
2022-08-21T09:40:45.270Z,22.80
2022-08-21T09:45:51.283Z,22.23
2022-08-21T09:50:55.193Z,21.84
2022-08-21T09:56:21.477Z,22.20
2022-08-21T10:01:27.434Z,22.20
2022-08-21T10:06:30.894Z,22.06
2022-08-21T10:11:34.738Z,22.51
2022-08-21T10:16:49.584Z,22.25
2022-08-21T10:22:27.357Z,21.83
2022-08-21T10:28:13.400Z,22.06
2022-08-21T10:33:34.849Z,22.40
2022-08-21T10:39:35.843Z,22.29
2022-08-21T10:45:00.133Z,21.95
2022-08-21T10:50:09.669Z,21.29
2022-08-21T10:55:38.678Z,21.36
2022-08-21T11:00:49.515Z,22.20
2022-08-21T11:06:01.179Z,22.41
2022-08-21T11:11:21.640Z,22.04
2022-08-21T11:16:25.144Z,22.06
2022-08-21T11:21:41.778Z,21.82
2022-08-21T11:26:59.620Z,21.75
2022-08-21T11:32:20.776Z,21.32
2022-08-21T11:37:28.662Z,22.04
2022-08-21T11:42:45.285Z,21.92
2022-08-21T11:48:03.265Z,21.75
2022-08-21T11:53:22.548Z,22.06
2022-08-21T11:58:44.271Z,22.25
2022-08-21T12:04:30.175Z,22.51
2022-08-21T12:09:37.796Z,22.90
2022-08-21T12:14:52.169Z,23.02
2022-08-21T12:20:00.281Z,23.28
2022-08-21T12:25:11.194Z,23.10
2022-08-21T12:30:39.015Z,23.29
2022-08-21T12:35:44.659Z,23.45
2022-08-21T12:40:50.039Z,22.74
2022-08-21T12:45:53.511Z,22.10
2022-08-21T12:51:01.702Z,21.73
2022-08-21T12:56:10.101Z,21.32
2022-08-21T13:01:40.919Z,21.23
2022-08-21T13:06:52.455Z,21.21
2022-08-21T13:11:56.562Z,21.19
2022-08-21T13:17:01.034Z,21.63
2022-08-21T13:22:15.932Z,21.95
2022-08-21T13:27:31.273Z,22.01
2022-08-21T13:32:38.908Z,22.52
2022-08-21T13:37:44.432Z,21.99
2022-08-21T13:42:49.414Z,22.04
2022-08-21T13:47:54.068Z,22.10
2022-08-21T13:53:06.982Z,21.99
2022-08-21T13:58:11.209Z,22.05
2022-08-21T14:03:29.729Z,22.19
2022-08-21T14:08:35.761Z,22.19
2022-08-21T14:13:46.374Z,22.48
2022-08-21T14:18:53.509Z,22.33
2022-08-21T14:24:08.577Z,22.40
2022-08-21T14:29:13.751Z,22.31
2022-08-21T14:34:19.589Z,22.56
2022-08-21T14:39:23.262Z,22.51
2022-08-21T14:44:26.000Z,22.42
2022-08-21T14:49:29.961Z,22.94
2022-08-21T14:54:33.116Z,23.21
2022-08-21T14:59:37.112Z,23.35
2022-08-21T15:04:39.960Z,23.19
2022-08-21T15:09:42.654Z,22.90
2022-08-21T15:14:45.376Z,22.96
2022-08-21T15:19:48.097Z,23.35
2022-08-21T15:24:50.709Z,23.44
2022-08-21T15:29:55.405Z,23.77
2022-08-21T15:34:59.109Z,23.59
2022-08-21T15:40:01.913Z,23.80
2022-08-21T15:45:06.816Z,23.65
2022-08-21T15:50:10.813Z,24.16
2022-08-21T15:55:14.430Z,24.06
2022-08-21T16:00:22.758Z,24.58
2022-08-21T16:10:30.015Z,24.52
2022-08-21T16:15:33.596Z,24.72
2022-08-21T16:20:36.316Z,24.99
2022-08-21T16:25:40.737Z,25.10
2022-08-21T16:30:47.362Z,25.40
2022-08-21T16:35:50.020Z,25.56
2022-08-21T16:40:52.668Z,25.65
2022-08-21T16:45:56.868Z,25.86
2022-08-21T16:50:59.551Z,25.87
2022-08-21T16:56:02.336Z,25.83
2022-08-21T17:01:08.306Z,26.31
2022-08-21T17:06:11.858Z,25.95
2022-08-21T17:11:36.768Z,26.53
2022-08-21T17:16:44.509Z,26.77
2022-08-21T17:21:47.597Z,27.25
2022-08-21T17:26:52.777Z,27.12
2022-08-21T17:31:56.745Z,27.32
2022-08-21T17:37:00.541Z,27.55
2022-08-21T17:42:09.893Z,27.71
2022-08-21T17:47:13.499Z,27.79
2022-08-21T17:52:16.465Z,27.98
2022-08-21T17:57:22.956Z,28.12
2022-08-21T18:02:25.882Z,28.28
2022-08-21T18:07:32.558Z,28.40
2022-08-21T18:12:36.329Z,28.64
2022-08-21T18:17:42.052Z,28.77
2022-08-21T18:22:45.598Z,29.03
2022-08-21T18:27:48.863Z,29.00
2022-08-21T18:32:54.498Z,29.40
2022-08-21T18:37:57.217Z,29.39
2022-08-21T18:43:04.138Z,29.44
2022-08-21T18:48:12.314Z,29.86
2022-08-21T18:53:24.011Z,30.10
2022-08-21T18:58:30.802Z,30.22
2022-08-21T19:03:33.431Z,30.50
2022-08-21T19:08:36.589Z,30.33
2022-08-21T19:13:40.870Z,30.55
2022-08-21T19:18:44.140Z,30.83
2022-08-21T19:23:52.579Z,30.91
2022-08-21T19:29:16.486Z,31.08
2022-08-21T19:34:24.101Z,31.04
2022-08-21T19:39:26.798Z,31.23
2022-08-21T19:44:31.804Z,31.41
2022-08-21T19:49:36.603Z,31.40
2022-08-21T19:54:39.581Z,31.56
2022-08-21T19:59:43.684Z,31.65
2022-08-21T20:04:53.985Z,31.53
2022-08-21T20:10:10.622Z,31.62
2022-08-21T20:15:16.334Z,31.76
2022-08-21T20:20:19.608Z,31.83
2022-08-21T20:25:22.995Z,32.06
2022-08-21T20:30:25.764Z,32.25
2022-08-21T20:35:29.105Z,32.38
2022-08-21T20:45:55.796Z,32.87
2022-08-21T20:51:25.352Z,33.29
2022-08-21T20:56:37.216Z,33.35
2022-08-21T21:01:41.742Z,33.45
2022-08-21T21:06:44.749Z,33.83
2022-08-21T21:11:57.609Z,33.85
2022-08-21T21:17:05.162Z,34.06
2022-08-21T21:22:10.558Z,34.26
2022-08-21T21:27:34.671Z,34.22
2022-08-21T21:32:39.066Z,34.07
2022-08-21T21:37:55.671Z,34.40
2022-08-21T21:43:27.699Z,34.21
2022-08-21T21:48:45.493Z,34.10
2022-08-21T21:53:54.518Z,34.27
2022-08-21T21:59:29.900Z,34.26
2022-08-21T22:04:38.222Z,34.63
2022-08-21T22:10:19.688Z,35.05
2022-08-21T22:15:32.914Z,34.77
2022-08-21T22:20:46.545Z,35.04
2022-08-21T22:25:54.241Z,35.35
2022-08-21T22:31:18.213Z,35.04
2022-08-21T22:36:21.934Z,35.26
2022-08-21T22:41:28.705Z,35.31
2022-08-21T22:46:31.275Z,35.16
2022-08-21T22:51:44.489Z,35.26
2022-08-21T22:56:55.261Z,35.49
2022-08-21T23:02:05.872Z,35.53
2022-08-21T23:07:09.725Z,35.82
2022-08-21T23:12:33.158Z,35.55
2022-08-21T23:17:49.967Z,35.34
2022-08-21T23:23:02.677Z,35.40
2022-08-21T23:28:41.703Z,35.59
2022-08-21T23:34:20.169Z,35.47
2022-08-21T23:39:41.289Z,35.58
2022-08-21T23:45:13.760Z,35.45
2022-08-21T23:50:44.720Z,35.71
2022-08-21T23:56:02.424Z,35.76
